Airfield :
LOGIN :

Register | Disclaimer

   EN    FR    IT 

 










Legend :    VFR   Marginal VFR   IFR   Intensive IFR   Very Intensive IFR
Visi :
Ceiling :
>= 8 km
>= 3000ft
5 to 8 km
1000 to 3000 ft
1500m to 5 km
500 to 1000 ft
800 to 1500m
200 to 500 ft
< 800m
< 200 ft
Symbols :   Thunderstorms  Fog  Heavy snow  Heavy precipitations  Wind > 20 kt
SIGMETs :     Misc.  Thunderstorms  Icing  Turbulence  Mountain Waves  Volcanic Ashes






- Airport Elevation : 170 ft
- IATA code : KRP


EKKA - Karup

CURRENT METAR :
  • 131150Z AUTO 13010KT 9999 SCT017/// BKN045/// 06/03 Q0996 TEMPO BKN012

EXPIRED METARs :
  • 131120Z AUTO 13011KT 090V180 9999 BKN015/// 06/03 Q0996 TEMPO BKN012
  • 131050Z AUTO 14009KT 100V160 9999 NCD 06/03 Q0996 TEMPO BKN012
  • 131020Z AUTO 13010KT 100V160 9999 FEW150/// 06/03 Q0996 TEMPO BKN012
  • 130950Z AUTO 13010KT 100V160 9999 FEW160/// 06/03 Q0997 NOSIG
  • 130920Z AUTO 13008KT 100V160 9999 BKN170/// 05/03 Q0997 NOSIG

TAF TAF EKKA
Valid from the 13 at 12:00 until the 14 at 12:00 UTC


131108Z 1312/1412 13008KT 9999 SCT020
TEMPO 1312/1314 BKN010
TEMPO 1314/1318 14012G22KT 4000 -SHRA BKN008 SCT020CB
TEMPO 1318/1405 4000 -SHRA BR BKN008 SCT020CB
BECMG 1323/1402 18006KT
TEMPO 1405/1409 4000 BR
TEMPO 1409/1412 1200 BR BKN002



MET'MAP, your aeronautical weather chart ! - Copyright ORBIFLY December 2007 - Disclaimer

ORBIFLY MET'MAP TEAM :

Programming & Development : Alexandra Zaïnal
Concept & Development : Baudouin d'Aumeries
Co-Development & Prog : Marc-Olivier Méhu
Technical & hardware support : Manuel Goepfert

Contact : metmap@orbifly.com




SOURCES & CREDITS :

   NOAA